createdAt,value
2022-08-04T00:00:20.374Z,101292.00
2022-08-04T00:03:12.012Z,101290.44
2022-08-04T00:06:00.978Z,101288.69
2022-08-04T00:08:37.596Z,101284.47
2022-08-04T00:11:05.620Z,101276.94
2022-08-04T00:13:39.551Z,101290.94
2022-08-04T00:16:32.903Z,101288.50
2022-08-04T00:19:17.444Z,101257.53
2022-08-04T00:21:49.251Z,101291.25
2022-08-04T00:24:17.771Z,101271.28
2022-08-04T00:26:45.578Z,101282.63
2022-08-04T00:29:13.129Z,101280.16
2022-08-04T00:31:56.245Z,101281.03
2022-08-04T00:34:30.295Z,101274.94
2022-08-04T00:36:59.312Z,101271.41
2022-08-04T00:39:27.645Z,101267.13
2022-08-04T00:42:10.364Z,101263.50
2022-08-04T00:45:08.537Z,101269.78
2022-08-04T00:47:51.089Z,101254.84
2022-08-04T00:50:21.221Z,101262.72
2022-08-04T00:52:48.676Z,101274.28
2022-08-04T00:55:37.721Z,101252.25
2022-08-04T00:58:28.869Z,101257.66
2022-08-04T01:01:05.367Z,101255.09
2022-08-04T01:03:51.213Z,101255.09
2022-08-04T01:06:50.760Z,101262.25
2022-08-04T01:09:45.126Z,101243.69
2022-08-04T01:12:15.623Z,101242.69
2022-08-04T01:15:18.894Z,101244.41
2022-08-04T01:18:00.934Z,101234.94
2022-08-04T01:20:43.344Z,101236.81
2022-08-04T01:23:25.812Z,101244.94
2022-08-04T01:26:43.470Z,101231.78
2022-08-04T01:29:09.497Z,101239.97
2022-08-04T01:31:51.982Z,101239.09
2022-08-04T01:34:21.498Z,101245.44
2022-08-04T01:37:04.698Z,101243.84
2022-08-04T01:39:43.021Z,101245.78
2022-08-04T01:42:12.654Z,101236.13
2022-08-04T01:44:51.220Z,101238.81
2022-08-04T01:47:22.688Z,101233.53
2022-08-04T01:49:52.752Z,101237.09
2022-08-04T01:52:20.921Z,101233.69
2022-08-04T01:54:49.616Z,101238.03
2022-08-04T01:57:37.119Z,101228.41
2022-08-04T02:00:08.248Z,101225.75
2022-08-04T02:02:35.853Z,101227.53
2022-08-04T02:05:03.925Z,101236.38
2022-08-04T02:07:51.407Z,101233.88
2022-08-04T02:10:40.799Z,101228.75
2022-08-04T02:13:30.854Z,101224.41
2022-08-04T02:16:20.358Z,101220.84
2022-08-04T02:19:17.759Z,101217.25
2022-08-04T02:21:49.690Z,101213.66
2022-08-04T02:24:20.113Z,101203.94
2022-08-04T02:26:50.942Z,101203.16
2022-08-04T02:29:22.109Z,101204.09
2022-08-04T02:31:57.797Z,101197.06
2022-08-04T02:34:43.465Z,101207.63
2022-08-04T02:37:12.066Z,101205.22
2022-08-04T02:39:48.503Z,101200.75
2022-08-04T02:42:17.793Z,101199.00
2022-08-04T02:44:51.587Z,101198.94
2022-08-04T02:48:19.360Z,101185.84
2022-08-04T02:50:28.479Z,101182.22
2022-08-04T02:52:59.280Z,101189.22
2022-08-04T02:55:30.315Z,101186.78
2022-08-04T02:57:59.583Z,101186.78
2022-08-04T03:00:27.633Z,101183.38
2022-08-04T03:03:10.331Z,101183.31
2022-08-04T03:06:00.635Z,101189.59
2022-08-04T03:08:31.750Z,101186.13
2022-08-04T03:11:20.767Z,101187.00
2022-08-04T03:14:11.034Z,101183.59
2022-08-04T03:16:56.506Z,101182.78
2022-08-04T03:19:59.163Z,101187.16
2022-08-04T03:22:34.102Z,101180.16
2022-08-04T03:25:25.855Z,101181.06
2022-08-04T03:28:32.161Z,101173.16
2022-08-04T03:31:21.590Z,101178.53
2022-08-04T03:34:16.675Z,101174.22
2022-08-04T03:37:09.092Z,101175.09
2022-08-04T03:40:02.005Z,101175.09
2022-08-04T03:42:32.558Z,101176.28
2022-08-04T03:45:29.883Z,101171.06
2022-08-04T03:48:09.573Z,101170.34
2022-08-04T03:51:35.621Z,101166.00
2022-08-04T03:54:33.113Z,101175.72
2022-08-04T03:57:22.223Z,101167.88
2022-08-04T04:00:21.200Z,101184.50
2022-08-04T04:03:33.003Z,101188.25
2022-08-04T04:06:44.674Z,101193.53
2022-08-04T04:09:30.034Z,101185.53
2022-08-04T04:12:54.631Z,101172.97
2022-08-04T04:15:54.176Z,101174.41
2022-08-04T04:18:30.711Z,101182.09
2022-08-04T04:21:23.763Z,101184.59
2022-08-04T04:24:09.764Z,101197.59
2022-08-04T04:26:46.004Z,101195.75
2022-08-04T04:29:22.794Z,101186.91
2022-08-04T04:32:04.119Z,101183.09
2022-08-04T04:34:47.437Z,101170.66
2022-08-04T04:37:47.693Z,101184.00
2022-08-04T04:40:25.882Z,101187.31
2022-08-04T04:43:18.867Z,101191.47
2022-08-04T04:46:15.316Z,101191.34
2022-08-04T04:49:07.286Z,101184.94
2022-08-04T04:51:43.328Z,101188.22
2022-08-04T04:54:35.722Z,101185.84
2022-08-04T04:57:08.878Z,101187.25
2022-08-04T04:59:40.568Z,101187.03
2022-08-04T05:02:34.301Z,101193.53
2022-08-04T05:05:28.099Z,101186.78
2022-08-04T05:08:45.467Z,101178.59
2022-08-04T05:11:52.343Z,101186.91
2022-08-04T05:14:40.954Z,101187.47
2022-08-04T05:17:24.611Z,101193.19
2022-08-04T05:20:02.757Z,101194.59
2022-08-04T05:23:03.002Z,101194.16
2022-08-04T05:25:58.419Z,101201.19
2022-08-04T05:28:55.547Z,101198.41
2022-08-04T05:31:30.140Z,101187.94
2022-08-04T05:34:08.277Z,101186.44
2022-08-04T05:36:42.058Z,101196.88
2022-08-04T05:39:16.903Z,101195.81
2022-08-04T05:41:48.061Z,101189.56
2022-08-04T05:44:24.727Z,101205.00
2022-08-04T05:46:55.753Z,101200.56
2022-08-04T05:49:25.728Z,101197.53
2022-08-04T05:51:55.439Z,101197.22
2022-08-04T05:54:24.031Z,101191.63
2022-08-04T05:56:52.546Z,101190.06
2022-08-04T05:59:21.583Z,101178.34
2022-08-04T06:01:55.651Z,101179.75
2022-08-04T06:04:32.085Z,101180.28
2022-08-04T06:06:59.781Z,101189.72
2022-08-04T06:09:27.607Z,101199.25
2022-08-04T06:12:00.773Z,101191.16
2022-08-04T06:14:38.010Z,101204.16
2022-08-04T06:18:33.005Z,101204.50
2022-08-04T06:20:18.459Z,101204.34
2022-08-04T06:22:48.790Z,101192.50
2022-08-04T06:25:20.877Z,101193.25
2022-08-04T06:27:50.478Z,101185.19
2022-08-04T06:30:19.468Z,101191.69
2022-08-04T06:33:04.371Z,101204.72
2022-08-04T06:35:33.496Z,101191.69
2022-08-04T06:38:02.099Z,101203.34
2022-08-04T06:40:33.667Z,101192.94
2022-08-04T06:43:04.246Z,101205.25
2022-08-04T06:45:34.452Z,101212.75
2022-08-04T06:48:03.576Z,101211.22
2022-08-04T06:51:26.166Z,101204.28
2022-08-04T06:53:19.335Z,101221.31
2022-08-04T06:55:48.373Z,101217.75
2022-08-04T06:58:17.410Z,101221.31
2022-08-04T07:00:48.000Z,101215.53
2022-08-04T07:03:18.837Z,101211.78
2022-08-04T07:05:48.661Z,101216.25
2022-08-04T07:08:17.501Z,101220.88
2022-08-04T07:10:46.290Z,101220.88
2022-08-04T07:13:14.675Z,101235.66
2022-08-04T07:15:46.944Z,101225.53
2022-08-04T07:18:14.765Z,101221.94
2022-08-04T07:20:44.433Z,101226.47
2022-08-04T07:23:17.456Z,101229.59
2022-08-04T07:26:12.030Z,101229.25
2022-08-04T07:28:40.826Z,101226.59
2022-08-04T07:31:32.040Z,101233.19
2022-08-04T07:34:16.640Z,101227.22
2022-08-04T07:36:50.578Z,101226.34
2022-08-04T07:39:27.559Z,101226.38
2022-08-04T07:42:02.345Z,101233.38
2022-08-04T07:44:31.842Z,101234.16
2022-08-04T07:47:00.626Z,101235.78
2022-08-04T07:49:55.216Z,101235.75
2022-08-04T07:52:17.092Z,101245.84
2022-08-04T07:54:45.543Z,101248.19
2022-08-04T07:57:19.519Z,101243.53
2022-08-04T08:00:00.770Z,101245.53
2022-08-04T08:02:29.342Z,101240.16
2022-08-04T08:04:57.423Z,101246.56
2022-08-04T08:07:25.050Z,101251.50
2022-08-04T08:09:52.624Z,101250.44
2022-08-04T08:12:36.858Z,101251.88
2022-08-04T08:15:10.353Z,101260.69
2022-08-04T08:17:57.819Z,101264.03
2022-08-04T08:20:28.930Z,101253.34
2022-08-04T08:22:58.060Z,101254.31
2022-08-04T08:25:25.762Z,101242.53
2022-08-04T08:27:55.929Z,101253.44
2022-08-04T08:30:24.899Z,101256.38
2022-08-04T08:33:01.699Z,101254.28
2022-08-04T08:35:39.814Z,101257.38
2022-08-04T08:38:30.103Z,101257.94
2022-08-04T08:41:10.688Z,101265.91
2022-08-04T08:44:38.017Z,101262.31
2022-08-04T08:47:19.811Z,101262.00
2022-08-04T08:50:03.180Z,101264.03
2022-08-04T08:53:03.994Z,101267.31
2022-08-04T08:55:55.316Z,101265.34
2022-08-04T08:58:44.058Z,101273.88
2022-08-04T09:01:42.329Z,101268.44
2022-08-04T09:04:38.581Z,101257.72
2022-08-04T09:07:30.943Z,101273.53
2022-08-04T09:10:05.382Z,101277.09
2022-08-04T09:12:53.729Z,101275.94
2022-08-04T09:15:36.322Z,101286.03
2022-08-04T09:18:11.253Z,101272.38
2022-08-04T09:20:47.643Z,101266.84
2022-08-04T09:23:37.037Z,101268.34
2022-08-04T09:26:17.381Z,101264.56
2022-08-04T09:28:55.129Z,101275.47
2022-08-04T09:31:49.079Z,101277.41
2022-08-04T09:34:39.766Z,101269.84
2022-08-04T09:37:21.928Z,101274.28
2022-08-04T09:40:04.506Z,101272.50
2022-08-04T09:42:55.722Z,101280.03
2022-08-04T09:45:43.322Z,101289.81
2022-08-04T09:48:33.451Z,101293.13
2022-08-04T09:51:01.095Z,101298.28
2022-08-04T09:53:46.981Z,101298.94
2022-08-04T09:56:58.930Z,101317.03
2022-08-04T09:59:34.320Z,101323.03
2022-08-04T10:02:08.951Z,101309.88
2022-08-04T10:04:40.531Z,101317.81
2022-08-04T10:07:07.970Z,101312.28
2022-08-04T10:09:49.102Z,101310.19
2022-08-04T10:12:19.540Z,101316.78
2022-08-04T10:15:05.546Z,101328.25
2022-08-04T10:17:51.956Z,101330.91
2022-08-04T10:20:35.917Z,101328.91
2022-08-04T10:23:14.043Z,101338.84
2022-08-04T10:26:16.731Z,101339.63
2022-08-04T10:28:59.171Z,101337.72
2022-08-04T10:31:35.611Z,101353.16
2022-08-04T10:34:11.844Z,101354.84
2022-08-04T10:36:59.643Z,101332.56
2022-08-04T10:39:42.697Z,101330.31
2022-08-04T10:42:22.647Z,101347.03
2022-08-04T10:45:12.114Z,101354.06
2022-08-04T10:47:55.538Z,101363.19
2022-08-04T10:50:25.837Z,101365.19
2022-08-04T10:53:10.777Z,101354.94
2022-08-04T10:56:07.544Z,101362.59
2022-08-04T10:58:48.555Z,101360.81
2022-08-04T11:02:01.132Z,101356.84
2022-08-04T11:04:37.257Z,101371.38
2022-08-04T11:07:05.190Z,101372.94
2022-08-04T11:09:34.861Z,101377.00
2022-08-04T11:12:16.966Z,101372.38
2022-08-04T11:14:56.459Z,101365.72
2022-08-04T11:17:29.097Z,101377.66
2022-08-04T11:20:33.419Z,101365.63
2022-08-04T11:23:03.986Z,101355.06
2022-08-04T11:25:42.682Z,101358.25
2022-08-04T11:28:20.021Z,101357.72
2022-08-04T11:30:54.911Z,101350.22
2022-08-04T11:33:31.711Z,101342.13
2022-08-04T11:36:19.961Z,101331.69
2022-08-04T11:39:12.253Z,101336.31
2022-08-04T11:42:01.932Z,101338.88
2022-08-04T11:44:50.172Z,101342.34
2022-08-04T11:47:27.055Z,101356.09
2022-08-04T11:50:09.606Z,101351.56
2022-08-04T11:52:41.943Z,101354.25
2022-08-04T11:55:17.291Z,101349.25
2022-08-04T11:57:45.821Z,101339.16
2022-08-04T12:00:23.386Z,101341.56
2022-08-04T12:02:53.537Z,101348.25
2022-08-04T12:05:36.570Z,101348.00
2022-08-04T12:08:30.406Z,101346.78
2022-08-04T12:11:22.158Z,101344.47
2022-08-04T12:14:09.654Z,101345.44
2022-08-04T12:16:53.548Z,101348.41
2022-08-04T12:19:34.956Z,101362.31
2022-08-04T12:22:22.979Z,101367.75
2022-08-04T12:25:04.364Z,101360.88
2022-08-04T12:27:42.976Z,101373.09
2022-08-04T12:30:57.968Z,101370.22
2022-08-04T12:33:01.277Z,101370.03
2022-08-04T12:35:35.164Z,101364.13
2022-08-04T12:38:16.837Z,101355.72
2022-08-04T12:40:52.307Z,101359.38
2022-08-04T12:43:44.753Z,101362.09
2022-08-04T12:46:23.138Z,101355.88
2022-08-04T12:48:51.396Z,101355.22
2022-08-04T12:52:06.581Z,101350.53
2022-08-04T12:54:10.173Z,101358.03
2022-08-04T12:56:40.716Z,101354.16
2022-08-04T12:59:12.581Z,101352.50
2022-08-04T13:02:10.206Z,101361.81
2022-08-04T13:04:30.764Z,101349.91
2022-08-04T13:07:03.765Z,101361.06
2022-08-04T13:09:35.024Z,101360.59
2022-08-04T13:12:07.091Z,101356.28
2022-08-04T13:14:38.901Z,101354.28
2022-08-04T13:17:08.640Z,101361.28
2022-08-04T13:19:41.358Z,101356.69
2022-08-04T13:22:10.216Z,101359.13
2022-08-04T13:24:57.013Z,101365.19
2022-08-04T13:27:29.285Z,101363.06
2022-08-04T13:30:14.734Z,101372.28
2022-08-04T13:32:56.530Z,101355.56
2022-08-04T13:35:54.149Z,101367.66
2022-08-04T13:38:15.409Z,101370.91
2022-08-04T13:40:44.771Z,101369.88
2022-08-04T13:44:16.249Z,101365.25
2022-08-04T13:46:27.677Z,101368.50
2022-08-04T13:49:26.107Z,101370.91
2022-08-04T13:52:02.273Z,101368.78
2022-08-04T13:54:43.433Z,101375.66
2022-08-04T13:57:19.236Z,101377.75
2022-08-04T13:59:52.897Z,101373.56
2022-08-04T14:02:58.472Z,101362.31
2022-08-04T14:05:33.809Z,101368.19
2022-08-04T14:08:16.315Z,101363.50
2022-08-04T14:10:44.036Z,101371.72
2022-08-04T14:13:11.674Z,101359.16
2022-08-04T14:16:01.977Z,101343.28
2022-08-04T14:18:33.071Z,101364.03
2022-08-04T14:21:11.683Z,101347.63
2022-08-04T14:23:59.453Z,101360.84
2022-08-04T14:26:33.101Z,101365.63
2022-08-04T14:29:28.162Z,101369.75
2022-08-04T14:32:13.825Z,101363.91
2022-08-04T14:34:50.559Z,101358.88
2022-08-04T14:37:20.617Z,101376.19
2022-08-04T14:40:17.827Z,101365.28
2022-08-04T14:42:55.211Z,101371.16
2022-08-04T14:45:38.694Z,101365.19
2022-08-04T14:48:12.079Z,101366.78
2022-08-04T14:50:42.332Z,101377.50
2022-08-04T14:53:13.778Z,101388.50
2022-08-04T14:55:44.153Z,101372.88
2022-08-04T14:58:35.265Z,101375.69
2022-08-04T15:01:10.377Z,101374.09
2022-08-04T15:03:48.285Z,101381.44
2022-08-04T15:06:22.168Z,101395.59
2022-08-04T15:08:52.493Z,101392.72
2022-08-04T15:11:23.506Z,101396.00
2022-08-04T15:13:51.770Z,101391.47
2022-08-04T15:16:20.068Z,101393.81
2022-08-04T15:18:49.118Z,101391.97
2022-08-04T15:21:18.015Z,101390.72
2022-08-04T15:23:45.659Z,101386.69
2022-08-04T15:26:16.681Z,101389.66
2022-08-04T15:28:49.770Z,101392.66
2022-08-04T15:32:06.536Z,101393.81
2022-08-04T15:34:09.707Z,101385.91
2022-08-04T15:36:45.526Z,101396.72
2022-08-04T15:39:44.882Z,101399.66
2022-08-04T15:42:16.134Z,101400.44
2022-08-04T15:44:52.383Z,101392.28
2022-08-04T15:47:20.188Z,101404.66
2022-08-04T15:50:04.924Z,101405.97
2022-08-04T15:53:15.899Z,101395.31
2022-08-04T15:58:55.703Z,101403.16
2022-08-04T16:01:23.960Z,101403.59
2022-08-04T16:03:59.021Z,101421.63
2022-08-04T16:06:29.201Z,101413.34
2022-08-04T16:09:05.588Z,101416.75
2022-08-04T16:11:34.930Z,101409.16
2022-08-04T16:14:02.402Z,101414.94
2022-08-04T16:16:29.894Z,101412.91
2022-08-04T16:19:09.302Z,101419.47
2022-08-04T16:21:52.122Z,101415.16
2022-08-04T16:24:29.656Z,101418.41
2022-08-04T16:26:58.307Z,101414.44
2022-08-04T16:29:28.793Z,101425.94
2022-08-04T16:32:05.497Z,101426.84
2022-08-04T16:34:50.245Z,101421.91
2022-08-04T16:37:30.771Z,101422.66
2022-08-04T16:40:34.068Z,101425.81
2022-08-04T16:43:08.113Z,101427.63
2022-08-04T16:45:43.686Z,101425.09
2022-08-04T16:48:13.159Z,101420.97
2022-08-04T16:50:50.102Z,101420.06
2022-08-04T16:53:52.348Z,101416.31
2022-08-04T16:56:09.969Z,101424.72
2022-08-04T16:58:38.200Z,101428.63
2022-08-04T17:01:32.268Z,101417.34
2022-08-04T17:04:06.065Z,101422.47
2022-08-04T17:06:39.015Z,101424.72
2022-08-04T17:09:18.226Z,101426.44
2022-08-04T17:11:48.468Z,101427.13
2022-08-04T17:14:22.669Z,101436.91
2022-08-04T17:16:50.205Z,101428.69
2022-08-04T17:19:26.031Z,101416.00
2022-08-04T17:22:10.156Z,101433.34
2022-08-04T17:24:40.837Z,101432.75
2022-08-04T17:28:19.303Z,101425.53
2022-08-04T17:29:56.925Z,101415.56
2022-08-04T17:32:24.784Z,101423.50
2022-08-04T17:34:55.376Z,101429.56
2022-08-04T17:37:51.960Z,101426.81
2022-08-04T17:40:22.744Z,101431.09
2022-08-04T17:44:03.829Z,101425.94
2022-08-04T17:46:28.557Z,101427.97
2022-08-04T17:49:09.533Z,101435.28
2022-08-04T17:52:06.650Z,101434.59
2022-08-04T17:54:39.911Z,101430.94
2022-08-04T17:57:21.092Z,101433.13
2022-08-04T17:59:57.917Z,101429.81
2022-08-04T18:02:32.226Z,101443.88
2022-08-04T18:05:11.415Z,101439.06
2022-08-04T18:08:37.682Z,101437.63
2022-08-04T18:10:55.738Z,101437.78
2022-08-04T18:13:28.872Z,101442.72
2022-08-04T18:16:14.547Z,101433.34
2022-08-04T18:19:13.502Z,101445.25
2022-08-04T18:21:46.743Z,101449.13
2022-08-04T18:24:35.544Z,101463.19
2022-08-04T18:27:22.357Z,101458.19
2022-08-04T18:30:33.880Z,101463.56
2022-08-04T18:33:04.316Z,101460.06
2022-08-04T18:36:34.731Z,101462.19
2022-08-04T18:38:22.751Z,101462.13
2022-08-04T18:40:52.980Z,101464.50
2022-08-04T18:43:27.956Z,101480.53
2022-08-04T18:45:57.778Z,101485.97
2022-08-04T18:48:36.423Z,101476.44
2022-08-04T18:53:58.883Z,101487.09
2022-08-04T18:56:29.667Z,101485.44
2022-08-04T18:59:04.083Z,101494.97
2022-08-04T19:02:09.318Z,101495.53
2022-08-04T19:04:33.031Z,101502.41
2022-08-04T19:07:24.509Z,101499.53
2022-08-04T19:09:51.866Z,101505.41
2022-08-04T19:12:26.601Z,101517.00
2022-08-04T19:15:08.514Z,101478.47
2022-08-04T19:17:55.068Z,101526.06
2022-08-04T19:20:29.469Z,101529.56
2022-08-04T19:24:10.352Z,101536.69
2022-08-04T19:28:36.940Z,101543.25
2022-08-04T19:31:10.094Z,101546.34
2022-08-04T19:33:58.836Z,101541.75
2022-08-04T19:36:31.214Z,101537.97
2022-08-04T19:39:00.706Z,101544.75
2022-08-04T19:41:33.821Z,101534.38
2022-08-04T19:44:21.481Z,101542.31
2022-08-04T19:46:51.289Z,101538.06
2022-08-04T19:50:05.458Z,101543.69
2022-08-04T19:52:10.747Z,101535.53
2022-08-04T19:54:40.854Z,101548.53
2022-08-04T19:57:09.538Z,101564.19
2022-08-04T19:59:39.373Z,101567.06
2022-08-04T20:02:15.949Z,101553.50
2022-08-04T20:04:43.488Z,101553.25
2022-08-04T20:07:14.491Z,101560.50
2022-08-04T20:09:58.970Z,101568.75
2022-08-04T20:12:31.722Z,101565.53
2022-08-04T20:14:59.566Z,101562.94
2022-08-04T20:20:15.299Z,101561.44
2022-08-04T20:22:51.890Z,101563.16
2022-08-04T20:25:36.418Z,101568.53
2022-08-04T20:28:05.545Z,101563.91
2022-08-04T20:30:33.571Z,101568.66
2022-08-04T20:33:01.468Z,101590.34
2022-08-04T20:35:32.562Z,101590.19
2022-08-04T20:41:10.095Z,101576.75
2022-08-04T20:43:40.801Z,101568.97
2022-08-04T20:46:17.662Z,101576.25
2022-08-04T20:48:46.318Z,101588.50
2022-08-04T20:51:20.038Z,101604.25
2022-08-04T20:53:59.264Z,101611.25
2022-08-04T20:56:30.658Z,101610.47
2022-08-04T20:59:00.065Z,101599.06
2022-08-04T21:01:29.551Z,101604.47
2022-08-04T21:04:28.330Z,101601.25
2022-08-04T21:06:58.017Z,101598.38
2022-08-04T21:09:37.992Z,101592.16
2022-08-04T21:12:17.063Z,101592.38
2022-08-04T21:14:57.804Z,101594.09
2022-08-04T21:17:59.223Z,101578.13
2022-08-04T21:20:13.915Z,101592.66
2022-08-04T21:22:42.075Z,101592.88
2022-08-04T21:25:15.752Z,101587.38
2022-08-04T21:27:44.523Z,101582.22
2022-08-04T21:30:25.419Z,101587.59
2022-08-04T21:32:55.166Z,101593.63
2022-08-04T21:35:36.862Z,101595.63
2022-08-04T21:38:16.606Z,101605.06
2022-08-04T21:40:55.774Z,101603.44
2022-08-04T21:43:28.573Z,101598.06
2022-08-04T21:46:04.661Z,101586.00
2022-08-04T21:48:33.293Z,101579.28
2022-08-04T21:52:00.106Z,101582.84
2022-08-04T21:54:26.447Z,101577.38
2022-08-04T21:56:53.943Z,101582.91
2022-08-04T21:59:23.729Z,101583.16
2022-08-04T22:02:00.398Z,101572.22
2022-08-04T22:04:28.667Z,101565.69
2022-08-04T22:06:56.194Z,101566.88
2022-08-04T22:09:23.744Z,101566.53
2022-08-04T22:11:52.112Z,101556.34
2022-08-04T22:14:29.646Z,101546.91
2022-08-04T22:17:04.142Z,101551.34
2022-08-04T22:19:49.857Z,101550.66
2022-08-04T22:22:25.217Z,101545.69
2022-08-04T22:24:58.497Z,101548.94
2022-08-04T22:27:44.123Z,101560.16
2022-08-04T22:30:17.051Z,101568.22
2022-08-04T22:32:47.186Z,101569.13
2022-08-04T22:35:35.427Z,101579.19
2022-08-04T22:38:07.223Z,101569.44
2022-08-04T22:41:12.491Z,101559.41
2022-08-04T22:43:40.926Z,101562.97
2022-08-04T22:46:11.960Z,101567.41
2022-08-04T22:48:43.300Z,101565.63
2022-08-04T22:51:13.004Z,101562.97
2022-08-04T22:53:40.995Z,101555.75
2022-08-04T22:56:11.150Z,101541.19
2022-08-04T22:58:45.466Z,101518.47
2022-08-04T23:01:18.127Z,101517.59
2022-08-04T23:03:50.913Z,101520.28
2022-08-04T23:06:24.401Z,101512.69
2022-08-04T23:08:52.295Z,101508.97
2022-08-04T23:11:20.301Z,101526.59
2022-08-04T23:13:49.322Z,101532.94
2022-08-04T23:16:18.943Z,101531.22
2022-08-04T23:18:49.127Z,101523.41
2022-08-04T23:21:17.657Z,101533.97
2022-08-04T23:24:00.592Z,101544.25
2022-08-04T23:26:30.225Z,101547.88
2022-08-04T23:28:57.947Z,101553.03
2022-08-04T23:31:40.703Z,101547.75
2022-08-04T23:34:12.048Z,101553.16
2022-08-04T23:36:40.341Z,101549.78
2022-08-04T23:39:08.354Z,101550.63
2022-08-04T23:41:53.249Z,101537.44
2022-08-04T23:44:24.939Z,101549.50
2022-08-04T23:47:04.644Z,101560.25
2022-08-04T23:49:44.138Z,101558.56
2022-08-04T23:52:28.090Z,101566.69
2022-08-04T23:55:00.585Z,101578.06
2022-08-04T23:57:30.844Z,101572.72
